• Join FlightAware (Why Join?)
  • Login
  • US Flag 
08:35AM EDT


 

Airport Tracker/Info


-or-


 

Live Flight TrackerFlight Track Log ✈ XOJ549 ✈ 28-Jun-2013 ✈ KHPN - KSUN

Flight Track Log - Related Links

Times and Time Zones

All times are in EDT time to prevent confusion due to time zone crossing. See the XOJ549 flight status page for this flight to view local times or setup timezone preferences in your user account.

Time Position Orientation Groundspeed Altitude Reporting Facility
EDT Latitude Longitude Course Direction KTS MPH feet Rate Location/Type
10:24AM 41.0833 -73.7167 306° West 164 189 1,500  Level New York TRACON
10:25AM 41.1167 -73.7667 312° West 217 250 4,200 3,000 Climbing New York TRACON
10:26AM 41.1667 -73.8167 323° Northwest 245 282 7,600 3,060 Climbing New York TRACON
10:27AM 41.1936 -73.8758 301° West 262 302 9,500 2,520 Climbing New York Center
10:28AM 41.2308 -73.9631 300° West 289 333 12,000 3,060 Climbing New York Center
10:29AM 41.2592 -74.0747 289° West 293 337 15,800 2,040 Climbing New York Center
10:30AM 41.3785 -74.3079 306° West  Level FlightAware Approximate
10:30AM 41.2647 -74.1744 274° West 298 343 16,200  Level New York Center
10:31AM 41.3492 -74.2753 318° Northwest 334 384 19,800 2,880 Climbing New York Center
10:32AM 41.4192 -74.3731 314° West 349 402 22,000 2,160 Climbing New York Center
10:33AM 41.4694 -74.4947 299° West 361 415 24,200 1,980 Climbing New York Center
10:34AM 41.5194 -74.6222 298° West 376 433 26,000 1,620 Climbing New York Center
10:35AM 41.5756 -74.7503 300° West 390 449 27,500 1,440 Climbing New York Center
10:36AM 41.6353 -74.8925 299° West 415 478 29,000 1,500 Climbing New York Center
10:37AM 41.6969 -75.0325 301° West 429 494 30,500 1,500 Climbing New York Center
10:38AM 41.7583 -75.1783 299° West 443 510 32,000 1,440 Climbing New York Center
10:39AM 41.8194 -75.3242 299° West 453 521 33,500 1,500 Climbing New York Center
10:40AM 41.8844 -75.4708 301° West 453 521 35,100 1,380 Climbing New York Center
10:41AM 41.9319 -75.5883 299° West 453 521 36,300 1,320 Climbing New York Center
10:43AM 42.0500 -75.8667 300° West 440 506 39,000 1,140 Climbing Toronto Center
10:45AM 42.1744 -76.1950 297° West 438 504 40,800 840 Climbing Cleveland Center
10:46AM 42.2217 -76.3461 293° West 448 516 41,600 660 Climbing Cleveland Center
10:47AM 42.2664 -76.4833 294° West 442 509 42,200 600 Climbing Cleveland Center
10:48AM 42.3153 -76.6319 294° West 442 509 42,800 360 Climbing Cleveland Center
10:49AM 42.3642 -76.7836 294° West 442 509 43,000 60 Climbing Cleveland Center
10:50AM 42.4131 -76.9408 293° West 448 516 43,000  Level Cleveland Center
10:51AM 42.4617 -77.0958 293° West 448 516 43,000  Level Cleveland Center
10:52AM 42.5100 -77.2508 293° West 448 516 43,000  Level Cleveland Center
10:53AM 42.5583 -77.4064 293° West 448 516 43,000  Level Cleveland Center
10:54AM 42.6108 -77.5842 292° West 462 532 43,000  Level Cleveland Center
10:55AM 42.6586 -77.7428 292° West 462 532 43,000  Level Cleveland Center
10:56AM 42.7106 -77.9044 294° West 462 532 43,000  Level Cleveland Center
10:57AM 42.7578 -78.0636 292° West 462 532 43,000  Level Cleveland Center
10:58AM 42.8050 -78.2258 292° West 462 532 43,000  Level Cleveland Center
10:59AM 42.8542 -78.3883 292° West 462 532 43,000  Level Cleveland Center
11:00AM 42.9028 -78.5481 293° West 467 537 43,000  Level Cleveland Center
11:01AM 42.9350 -78.7144 285° West 467 537 43,000  Level Cleveland Center
11:02AM 42.9439 -78.8872 274° West 456 525 43,000  Level Cleveland Center
11:03AM 42.9525 -79.0572 274° West 456 525 43,000  Level Cleveland Center
11:04AM 42.9608 -79.2328 274° West 456 525 43,000  Level Cleveland Center
11:05AM 42.9731 -79.4056 276° West 462 532 43,000  Level Cleveland Center
11:06AM 42.9667 -79.5667 267° West 460 529 43,000  Level Toronto Center
11:07AM 42.9667 -79.7167 270° West 460 529 43,000  Level Toronto Center
11:08AM 42.9833 -79.8833 278° West 450 518 43,000  Level Toronto Center
11:09AM 42.9833 -80.0667 270° West 450 518 43,000  Level Toronto Center
11:10AM 43.0000 -80.2333 278° West 450 518 43,000  Level Toronto Center
11:11AM 43.0000 -80.4000 270° West 450 518 43,000  Level Toronto Center
11:12AM 43.0167 -80.5833 277° West 450 518 43,000  Level Toronto Center
11:13AM 43.0167 -80.7500 270° West 450 518 43,000  Level Toronto Center
11:14AM 43.0167 -80.9167 270° West 450 518 43,000  Level Toronto Center
11:15AM 43.0167 -81.1000 270° West 450 518 43,000  Level Toronto Center
11:16AM 43.0333 -81.2500 279° West 450 518 43,000  Level Toronto Center
11:17AM 43.0667 -81.4333 284° West 450 518 43,000  Level Toronto Center
11:18AM 43.1000 -81.6000 285° West 450 518 43,000  Level Toronto Center
11:19AM 43.1167 -81.7500 279° West 450 518 43,000  Level Toronto Center
11:20AM 43.1333 -81.9167 278° West 450 518 43,000  Level Toronto Center
11:21AM 43.1500 -82.1000 277° West 450 518 43,000  Level Toronto Center
11:22AM 43.1833 -82.2667 285° West 450 518 43,000  Level Toronto Center
11:23AM 43.2167 -82.4500 284° West 450 518 43,000  Level Toronto Center
11:24AM 43.2333 -82.6000 279° West 450 518 43,000  Level Toronto Center
11:25AM 43.2539 -82.7922 278° West 447 514 43,000  Level Cleveland Center
11:26AM 43.2525 -82.9661 269° West 447 514 43,000  Level Cleveland Center
11:27AM 43.2550 -83.1400 271° West 452 520 43,000  Level Cleveland Center
11:28AM 43.2533 -83.3111 269° West 458 527 43,000  Level Cleveland Center
11:29AM 43.2511 -83.4819 269° West 458 527 43,000  Level Cleveland Center
11:30AM 43.2508 -83.6589 270° West 463 533 43,000  Level Cleveland Center
11:31AM 43.2481 -83.8325 269° West 458 527 43,000  Level Cleveland Center
11:32AM 43.2461 -83.9722 269° West 458 527 43,000  Level Cleveland Center
11:33AM 43.2447 -84.1572 269° West 458 527 43,000  Level Cleveland Center
11:35AM 43.2400 -84.4578 269° West 455 524 43,000  Level Chicago Center
11:36AM 43.2375 -84.6300 269° West 454 522 43,000  Level Chicago Center
11:37AM 43.2344 -84.8358 269° West 453 521 43,000  Level Chicago Center
11:38AM 43.2317 -85.0092 269° West 456 525 43,000  Level Chicago Center
11:39AM 43.2281 -85.1811 268° West 454 522 43,000  Level Chicago Center
11:40AM 43.2244 -85.3522 268° West 453 521 43,000  Level Chicago Center
11:41AM 43.2194 -85.5233 268° West 453 521 43,000  Level Chicago Center
11:42AM 43.2150 -85.7283 268° West 454 522 43,000  Level Chicago Center
11:43AM 43.2108 -85.8978 268° West 454 522 43,000  Level Chicago Center
11:44AM 43.2058 -86.0667 268° West 455 524 43,000  Level Chicago Center
11:45AM 43.2003 -86.2358 267° West 454 522 43,000  Level Chicago Center
11:46AM 43.1936 -86.4369 267° West 441 507 43,000  Level Chicago Center
11:47AM 43.1881 -86.6050 267° West 442 509 43,000  Level Chicago Center
11:48AM 43.1819 -86.7750 267° West 447 514 43,000  Level Chicago Center
11:49AM 43.1756 -86.9417 267° West 442 509 43,000  Level Chicago Center
11:50AM 43.1700 -87.1114 267° West 448 516 43,000  Level Chicago Center
11:51AM 43.1603 -87.3122 266° West 442 509 43,000  Level Chicago Center
11:52AM 43.1539 -87.4578 267° West 432 497 43,000  Level Chicago Center
11:53AM 43.1453 -87.6575 267° West 446 513 43,000  Level Chicago Center
11:54AM 43.1383 -87.8239 267° West 437 503 43,000  Level Chicago Center
11:55AM 43.1300 -87.9903 266° West 436 502 43,000  Level Chicago Center
11:56AM 43.1222 -88.1594 266° West 438 504 43,000  Level Chicago Center
11:57AM 43.1158 -88.3289 267° West 442 509 43,000  Level Chicago Center
11:58AM 43.1189 -88.4989 271° West 443 510 43,000  Level Chicago Center
11:59AM 43.1217 -88.6969 271° West 442 509 43,000  Level Chicago Center
12:00PM 43.1242 -88.8647 271° West 438 504 43,000  Level Chicago Center
12:02PM 43.1256 -89.0319 271° West 438 504 43,000  Level Chicago Center
12:03PM 43.1286 -89.1989 271° West 437 503 43,000  Level Chicago Center
12:04PM 43.1292 -89.3667 270° West 439 505 43,000  Level Chicago Center
12:05PM 43.1306 -89.5339 271° West 439 505 43,000  Level Chicago Center
12:06PM 43.1325 -89.7289 271° West 439 505 43,000  Level Chicago Center
12:07PM 43.1333 -89.8961 270° West 440 506 43,000  Level Chicago Center
12:08PM 43.1331 -90.0633 270° West 440 506 43,000  Level Chicago Center
12:09PM 43.1336 -90.2317 270° West 442 509 43,000  Level Chicago Center
12:10PM 43.1336 -90.3869 270° West 441 507 43,000  Level Chicago Center
12:11PM 43.1331 -90.5861 270° West 442 509 43,000  Level Chicago Center
12:12PM 43.1336 -90.7517 270° West 439 505 43,000  Level Chicago Center
12:13PM 43.1336 -90.9150 270° West 438 504 43,000  Level Minneapolis Center
12:14PM 43.1317 -91.0781 269° West 435 501 43,000  Level Minneapolis Center
12:15PM 43.1308 -91.2739 270° West 436 502 43,000  Level Chicago Center
12:16PM 43.1311 -91.4050 270° West 437 503 43,000  Level Minneapolis Center
12:17PM 43.1294 -91.6031 269° West 441 507 43,000  Level Minneapolis Center
12:18PM 43.1256 -91.7667 268° West 440 506 43,000  Level Minneapolis Center
12:19PM 43.1233 -91.9283 269° West 434 499 43,000  Level Minneapolis Center
12:20PM 43.1194 -92.0886 268° West 430 495 43,000  Level Minneapolis Center
12:21PM 43.1169 -92.2789 269° West 424 488 43,000  Level Minneapolis Center
12:22PM 43.1150 -92.4347 269° West 417 480 43,000  Level Minneapolis Center
12:23PM 43.1119 -92.5881 268° West 414 476 43,000  Level Minneapolis Center
12:24PM 43.1083 -92.7386 268° West 404 465 43,000  Level Minneapolis Center
12:25PM 43.1050 -92.8867 268° West 398 458 43,000  Level Minneapolis Center
12:26PM 43.1006 -93.0664 268° West 398 458 43,000  Level Minneapolis Center
12:27PM 43.0969 -93.2153 268° West 397 457 43,000  Level Minneapolis Center
12:28PM 43.0969 -93.3653 270° West 400 460 43,000  Level Minneapolis Center
12:29PM 43.1250 -93.5081 285° West 392 451 43,000  Level Minneapolis Center
12:30PM 43.1497 -93.6506 283° West 391 450 43,000  Level Minneapolis Center
12:31PM 43.1797 -93.8244 283° West 395 455 43,000  Level Minneapolis Center
12:32PM 43.2047 -93.9689 283° West 395 455 43,000  Level Minneapolis Center
12:34PM 43.2306 -94.1139 284° West 395 455 43,000  Level Minneapolis Center
12:35PM 43.2578 -94.2806 283° West 395 455 43,000  Level Minneapolis Center
12:36PM 43.2836 -94.4261 284° West 394 453 43,000  Level Minneapolis Center
12:37PM 43.3072 -94.5731 282° West 395 455 43,000  Level Minneapolis Center
12:38PM 43.3319 -94.7211 283° West 397 457 43,000  Level Minneapolis Center
12:39PM 43.3561 -94.8703 283° West 399 459 43,000  Level Minneapolis Center
12:40PM 43.3861 -95.0503 283° West 402 463 43,000  Level Minneapolis Center
12:41PM 43.4097 -95.2014 282° West 403 464 43,000  Level Minneapolis Center
12:42PM 43.4339 -95.3542 282° West 409 471 43,000  Level Minneapolis Center
12:43PM 43.4572 -95.5081 282° West 410 472 43,000  Level Minneapolis Center
12:44PM 43.4822 -95.6625 283° West 412 474 43,000  Level Minneapolis Center
12:45PM 43.5056 -95.8169 282° West 412 474 43,000  Level Minneapolis Center
12:46PM 43.5383 -96.0317 282° West 410 472 43,000  Level Minneapolis Center
12:47PM 43.5619 -96.1872 282° West 411 473 43,000  Level Minneapolis Center
12:48PM 43.5844 -96.3428 281° West 412 474 43,000  Level Minneapolis Center
12:49PM 43.6075 -96.4992 282° West 414 476 43,000  Level Minneapolis Center
12:50PM 43.6303 -96.6544 282° West 413 475 43,000  Level Minneapolis Center
12:51PM 43.6525 -96.8089 281° West 411 473 43,000  Level Minneapolis Center
12:52PM 43.6642 -96.9625 276° West 404 465 43,000  Level Minneapolis Center
12:53PM 43.6783 -97.1464 276° West 403 464 43,000  Level Minneapolis Center
12:54PM 43.6889 -97.3014 275° West 405 466 43,000  Level Minneapolis Center
12:56PM 43.7036 -97.4875 276° West 406 467 43,000  Level Minneapolis Center
12:57PM 43.7156 -97.6439 276° West 408 470 43,000  Level Minneapolis Center
12:58PM 43.7264 -97.7992 276° West 408 470 43,000  Level Minneapolis Center
12:59PM 43.7367 -97.9569 275° West 411 473 43,000  Level Minneapolis Center
01:00PM 43.7486 -98.1122 276° West 408 470 43,000  Level Minneapolis Center
01:01PM 43.7606 -98.2969 275° West 405 466 43,000  Level Minneapolis Center
01:02PM 43.7711 -98.4503 275° West 401 461 43,000  Level Minneapolis Center
01:03PM 43.7775 -98.5747 274° West 404 465 43,000  Level Minneapolis Center
01:04PM 43.7906 -98.7719 275° West 404 465 43,000  Level Minneapolis Center
01:05PM 43.8003 -98.9278 275° West 406 467 43,000  Level Minneapolis Center
01:06PM 43.8097 -99.0828 275° West 404 465 43,000  Level Minneapolis Center
01:07PM 43.8189 -99.2386 275° West 405 466 43,000  Level Minneapolis Center
01:08PM 43.8297 -99.4267 275° West 407 468 43,000  Level Minneapolis Center
01:09PM 43.8381 -99.5844 274° West 409 471 43,000  Level Minneapolis Center
01:10PM 43.8481 -99.7714 274° West 406 467 43,000  Level Minneapolis Center
01:11PM 43.8569 -99.9303 274° West 409 471 43,000  Level Minneapolis Center
01:12PM 43.8647 -100.0867 274° West 409 471 43,000  Level Minneapolis Center
01:13PM 43.8731 -100.2414 274° West 405 466 43,000  Level Minneapolis Center
01:15PM 43.8803 -100.3983 274° West 405 466 43,000  Level Minneapolis Center
01:16PM 43.8889 -100.5875 274° West 408 470 43,000  Level Minneapolis Center
01:17PM 43.8964 -100.7456 274° West 410 472 43,000  Level Minneapolis Center
01:18PM 43.9028 -100.9028 273° West 409 471 43,000  Level Minneapolis Center
01:19PM 43.9103 -101.0611 274° West 410 472 43,000  Level Minneapolis Center
01:20PM 43.9144 -101.1869 273° West 410 472 43,000  Level Minneapolis Center
01:21PM 43.9222 -101.3761 273° West 409 471 43,000  Level Minneapolis Center
01:22PM 43.9294 -101.5339 274° West 410 472 43,000  Level Denver Center
01:23PM 43.9350 -101.6908 273° West 408 470 43,000  Level Denver Center
01:24PM 43.9381 -101.8447 272° West 402 463 43,000  Level Denver Center
01:25PM 43.9419 -102.0008 272° West 402 463 43,000  Level Denver Center
01:26PM 43.9475 -102.1581 273° West 406 467 43,000  Level Denver Center
01:27PM 43.9564 -102.3486 274° West 410 472 43,000  Level Denver Center
01:28PM 43.9603 -102.5064 272° West 410 472 43,000  Level Denver Center
01:29PM 43.9672 -102.6672 273° West 415 478 43,000  Level Denver Center
01:30PM 43.9711 -102.8247 272° West 410 472 43,000  Level Denver Center
01:31PM 43.9767 -102.9964 273° West 409 471 43,000  Level Denver Center
01:32PM 43.9811 -103.1472 272° West 409 471 43,000  Level Denver Center
01:33PM 43.9833 -103.3211 271° West 407 468 43,000  Level Denver Center
01:34PM 43.9853 -103.4728 271° West 409 471 43,000  Level Denver Center
01:35PM 43.9892 -103.6500 272° West 411 473 43,000  Level Denver Center
01:36PM 43.9911 -103.8011 271° West 410 472 43,000  Level Denver Center
01:37PM 43.9933 -103.9756 271° West 407 468 43,000  Level Denver Center
01:38PM 43.9956 -104.1278 271° West 410 472 43,000  Level Denver Center
01:39PM 43.9978 -104.3014 271° West 407 468 43,000  Level Denver Center
01:40PM 43.9986 -104.4497 270° West 404 465 43,000  Level Denver Center
01:41PM 44.0011 -104.6247 271° West 405 466 43,000  Level Denver Center
01:42PM 44.0022 -104.7764 271° West 407 468 43,000  Level Denver Center
01:43PM 44.0028 -104.9556 270° West 411 473 43,000  Level Denver Center
01:44PM 44.0033 -105.1081 270° West 413 475 43,000  Level Denver Center
01:45PM 44.0047 -105.2861 271° West 414 476 43,000  Level Denver Center
01:46PM 44.0047 -105.4386 270° West 414 476 43,000  Level Denver Center
01:47PM 44.0050 -105.6167 270° West 414 476 43,000  Level Denver Center
01:48PM 44.0042 -105.7692 270° West 414 476 43,000  Level Denver Center
01:50PM 44.0036 -105.9208 270° West 413 475 43,000  Level Denver Center
01:51PM 44.0033 -106.1000 270° West 414 476 43,000  Level Denver Center
01:51PM 44.0008 -106.2322 269° West 416 479 43,000  Level Salt Lake Center
01:52PM 44.0017 -106.3853 270° West 416 479 43,000  Level Salt Lake Center
01:53PM 44.0058 -106.5628 272° West 414 476 43,000  Level Salt Lake Center
01:54PM 44.0114 -106.7172 273° West 416 479 43,000  Level Salt Lake Center
01:56PM 44.0181 -106.8958 273° West 417 480 43,000  Level Salt Lake Center
01:57PM 44.0239 -107.0489 273° West 416 479 43,000  Level Salt Lake Center
01:58PM 44.0300 -107.2292 273° West 418 481 43,000  Level Salt Lake Center
01:59PM 44.0358 -107.3917 273° West 416 479 43,000  Level Salt Lake Center
02:00PM 44.0408 -107.5458 273° West 417 480 43,000  Level Salt Lake Center
02:01PM 44.0467 -107.7253 273° West 418 481 43,000  Level Salt Lake Center
02:02PM 44.0506 -107.8797 272° West 418 481 43,000  Level Salt Lake Center
02:03PM 44.0547 -108.0578 272° West 415 478 43,000  Level Salt Lake Center
02:04PM 44.0578 -108.2128 272° West 420 483 43,000  Level Salt Lake Center
02:05PM 44.0633 -108.3847 273° West 416 479 43,000  Level Salt Lake Center
02:06PM 44.0675 -108.5403 272° West 419 482 43,000  Level Salt Lake Center
02:07PM 44.0694 -108.7194 271° West 417 480 43,000  Level Salt Lake Center
02:08PM 44.0736 -108.8736 272° West 417 480 43,000  Level Salt Lake Center
02:09PM 44.0761 -109.0544 271° West 418 481 43,000  Level Salt Lake Center
02:10PM 44.0786 -109.2094 271° West 419 482 43,000  Level Salt Lake Center
02:11PM 44.0825 -109.3903 272° West 419 482 43,000  Level Salt Lake Center
02:12PM 44.0842 -109.5453 271° West 419 482 43,000  Level Salt Lake Center
02:13PM 44.0858 -109.7267 271° West 420 483 43,000  Level Salt Lake Center
02:14PM 44.0878 -109.8825 271° West 421 484 43,000  Level Salt Lake Center
02:15PM 44.0897 -110.0631 271° West 420 483 43,000  Level Salt Lake Center
02:16PM 44.0911 -110.2183 271° West 419 482 43,000  Level Salt Lake Center
02:17PM 44.0931 -110.4000 271° West 421 484 43,000  Level Salt Lake Center
02:18PM 44.0936 -110.5561 270° West 421 484 43,000  Level Salt Lake Center
02:19PM 44.0922 -110.7119 269° West 421 484 43,000  Level Salt Lake Center
02:20PM 44.0939 -110.8925 271° West 419 482 43,000  Level Salt Lake Center
02:21PM 44.0933 -111.0492 270° West 420 483 43,000  Level Salt Lake Center
02:22PM 44.0936 -111.2319 270° West 421 484 43,000  Level Salt Lake Center
02:23PM 44.0933 -111.3869 270° West 418 481 43,000  Level Salt Lake Center
02:24PM 44.0917 -111.5692 269° West 419 482 43,000 -420 Level Salt Lake Center
02:25PM 44.0914 -111.7267 270° West 422 486 42,200 -900 Descending Salt Lake Center
02:27PM 44.0903 -111.8858 269° West 427 491 41,200 -1,020 Descending Salt Lake Center
02:28PM 44.0883 -112.0708 269° West 427 491 40,100 -1,020 Descending Salt Lake Center
02:29PM 44.0783 -112.2256 265° West 423 487 39,100 -1,260 Descending Salt Lake Center
02:30PM 44.0206 -112.3939 245° Southwest 431 496 37,600 -1,500 Descending Salt Lake Center
02:31PM 43.9686 -112.5367 243° Southwest 433 498 36,000 -1,740 Descending Salt Lake Center
02:32PM 43.9078 -112.7047 243° Southwest 436 502 34,100 -1,800 Descending Salt Lake Center
02:33PM 43.8550 -112.8492 243° Southwest 439 505 32,400 -2,040 Descending Salt Lake Center
02:34PM 43.7922 -113.0206 243° Southwest 445 512 29,900 -2,460 Descending Salt Lake Center
02:35PM 43.7389 -113.1658 243° Southwest 444 511 27,400 -2,580 Descending Salt Lake Center
02:36PM 43.6772 -113.3278 242° Southwest 428 493 24,600 -2,520 Descending Salt Lake Center
02:37PM 43.6269 -113.4619 243° Southwest 414 476 22,200 -2,520 Descending Salt Lake Center
02:38PM 43.5706 -113.6150 243° Southwest 402 463 19,500 -2,340 Descending Salt Lake Center
02:39PM 43.5208 -113.7425 242° Southwest 397 457 17,400 -2,160 Descending Salt Lake Center
02:40PM 43.4736 -113.8650 242° Southwest 385 443 15,100 -2,100 Descending Salt Lake Center
02:41PM 43.4275 -113.9889 243° Southwest 365 420 13,100 -1,980 Descending Salt Lake Center
02:43PM 43.3326 -114.1937 241° Southwest  Level FlightAware Approximate
02:50PM 43.5000 -114.2833 351° North  Level FlightAware Approximate
02:51PM 43.5038 -114.2956 351° North  Level Estimated